Time;durP1;ratioP1;P1;durP2;ratioP2;P2;SDS_P1;SDS_P2;PMS_P1;PMS_P2;Temp;Humidity;BMP_temperature;BMP_pressure;BME280_temperature;BME280_humidity;BME280_pressure;Samples;Min_cycle;Max_cycle;Signal;HPM_P1;HPM_P2
2021/03/08 00:00:54;;;;;;;18.65;14.68;;;;;;;-2.05;81.30;100862.06;2065713;28;20213;-84
2021/03/08 00:01:54;;;;;;;19.67;15.10;;;;;;;-1.95;81.39;100869.22;2066072;28;20026;-82
2021/03/08 00:02:56;;;;;;;20.17;16.03;;;;;;;-1.98;81.15;100861.44;2066056;28;20030;-87
2021/03/08 00:03:56;;;;;;;23.00;15.48;;;;;;;-1.98;80.97;100858.03;2065711;28;20481;-83
2021/03/08 00:04:57;;;;;;;21.67;15.67;;;;;;;-2.04;81.11;100859.56;2065582;28;20027;-85
2021/03/08 00:05:57;;;;;;;20.40;14.87;;;;;;;-2.05;81.43;100862.94;2072655;28;20026;-86
2021/03/08 00:06:57;;;;;;;19.83;15.13;;;;;;;-2.11;81.50;100865.28;2072514;28;20030;-85
2021/03/08 00:07:57;;;;;;;21.30;15.00;;;;;;;-2.08;81.47;100859.41;2065591;28;20022;-83
2021/03/08 00:08:58;;;;;;;20.03;16.07;;;;;;;-2.07;81.54;100863.69;2065564;28;20026;-84
2021/03/08 00:09:58;;;;;;;20.83;15.27;;;;;;;-2.06;81.31;100865.44;2065107;28;20054;-83
2021/03/08 00:10:58;;;;;;;19.87;15.10;;;;;;;-2.10;81.48;100853.38;2065368;28;20405;-83
2021/03/08 00:11:59;;;;;;;20.03;14.63;;;;;;;-2.11;81.61;100854.22;2065049;28;20034;-85
2021/03/08 00:12:59;;;;;;;19.53;15.60;;;;;;;-2.05;81.18;100851.84;2072731;28;20026;-78
2021/03/08 00:13:59;;;;;;;20.67;15.37;;;;;;;-2.03;80.94;100851.06;2072804;28;20084;-79
2021/03/08 00:15:00;;;;;;;23.53;15.53;;;;;;;-2.05;81.08;100852.72;2072804;28;20037;-79
2021/03/08 00:16:00;;;;;;;18.97;14.67;;;;;;;-2.08;81.23;100854.31;2072707;28;20060;-79
2021/03/08 00:17:02;;;;;;;21.47;15.47;;;;;;;-2.11;81.05;100857.63;2065457;28;20033;-80
2021/03/08 00:18:03;;;;;;;18.83;14.55;;;;;;;-2.15;81.21;100857.50;2064926;28;20022;-79
2021/03/08 00:19:03;;;;;;;18.55;14.95;;;;;;;-2.07;81.36;100856.03;2065230;28;20018;-79
2021/03/08 00:20:06;;;;;;;18.77;13.87;;;;;;;-2.05;81.46;100859.53;2065065;28;20045;-79
2021/03/08 00:21:07;;;;;;;19.27;14.95;;;;;;;-2.05;80.96;100857.81;2064891;28;20037;-80
2021/03/08 00:22:07;;;;;;;17.97;13.63;;;;;;;-2.14;81.35;100857.53;2065120;28;20432;-81
2021/03/08 00:23:07;;;;;;;18.90;15.00;;;;;;;-2.24;81.55;100851.28;2064921;28;20105;-86
2021/03/08 00:24:08;;;;;;;17.87;14.47;;;;;;;-2.28;81.59;100854.53;2065275;28;20033;-88
2021/03/08 00:25:11;;;;;;;17.87;13.83;;;;;;;-2.13;81.06;100863.53;2065168;28;20524;-80
2021/03/08 00:26:11;;;;;;;19.02;14.32;;;;;;;-2.20;81.23;100857.34;2064941;28;20033;-80
2021/03/08 00:27:12;;;;;;;20.67;14.70;;;;;;;-2.15;80.85;100852.38;2065167;28;20121;-79
2021/03/08 00:28:12;;;;;;;20.33;14.73;;;;;;;-2.17;81.26;100856.56;2065214;28;20038;-80
2021/03/08 00:29:12;;;;;;;18.60;14.33;;;;;;;-2.13;81.19;100860.97;2065263;28;20034;-80
2021/03/08 00:30:15;;;;;;;18.20;14.27;;;;;;;-2.09;81.06;100862.78;2064943;28;20468;-80
2021/03/08 00:31:15;;;;;;;18.45;13.00;;;;;;;-2.11;80.84;100856.78;2064694;28;20033;-80
2021/03/08 00:32:15;;;;;;;18.23;14.67;;;;;;;-2.20;80.85;100857.34;2065016;28;20022;-81
2021/03/08 00:33:16;;;;;;;15.80;13.20;;;;;;;-2.25;81.09;100861.41;2065067;28;20026;-80
2021/03/08 00:34:16;;;;;;;18.20;13.87;;;;;;;-2.28;81.18;100859.63;2065010;28;20030;-77
2021/03/08 00:35:17;;;;;;;17.13;13.60;;;;;;;-2.24;81.45;100866.59;2064417;28;20034;-79
2021/03/08 00:36:17;;;;;;;19.80;14.25;;;;;;;-2.30;81.45;100863.81;2063967;28;20101;-83
2021/03/08 00:37:18;;;;;;;18.67;13.37;;;;;;;-2.32;81.82;100862.03;2065076;28;20034;-86
2021/03/08 00:38:18;;;;;;;19.52;14.40;;;;;;;-2.40;82.18;100864.34;2064931;28;20034;-82
2021/03/08 00:39:19;;;;;;;17.53;13.57;;;;;;;-2.38;81.77;100867.81;2064920;28;20113;-83
2021/03/08 00:40:21;;;;;;;15.73;12.87;;;;;;;-2.33;81.69;100863.75;2064699;28;20124;-82
2021/03/08 00:41:21;;;;;;;19.23;14.07;;;;;;;-2.23;81.35;100867.44;2064093;28;20023;-83
2021/03/08 00:42:22;;;;;;;18.07;13.70;;;;;;;-2.23;81.30;100868.34;2064265;28;20023;-85
2021/03/08 00:43:22;;;;;;;18.83;14.30;;;;;;;-2.31;81.80;100869.78;2072437;28;20491;-87
2021/03/08 00:44:22;;;;;;;18.67;13.53;;;;;;;-2.32;81.56;100868.03;2065268;28;20456;-85
2021/03/08 00:45:23;;;;;;;16.07;13.03;;;;;;;-2.36;81.58;100867.06;2065000;28;20030;-84
2021/03/08 00:46:23;;;;;;;18.10;13.55;;;;;;;-2.34;81.54;100864.56;2065124;28;20058;-86
2021/03/08 00:47:25;;;;;;;18.33;13.93;;;;;;;-2.29;81.46;100863.00;2064907;28;20027;-86
2021/03/08 00:48:25;;;;;;;18.45;12.52;;;;;;;-2.25;80.96;100862.28;2064838;28;20464;-84
2021/03/08 00:49:25;;;;;;;17.80;13.47;;;;;;;-2.29;81.40;100863.00;2064533;28;20034;-86
2021/03/08 00:50:28;;;;;;;17.43;13.17;;;;;;;-2.35;81.47;100855.16;2064820;28;20161;-84
2021/03/08 00:51:28;;;;;;;17.05;12.57;;;;;;;-2.37;81.29;100860.22;2071915;28;20061;-84
2021/03/08 00:52:28;;;;;;;19.60;13.20;;;;;;;-2.44;81.67;100857.41;2072411;28;20400;-85
2021/03/08 00:53:29;;;;;;;16.93;13.53;;;;;;;-2.51;81.97;100856.31;2064116;28;20519;-82
2021/03/08 00:54:29;;;;;;;17.33;13.60;;;;;;;-2.52;82.21;100869.91;2064399;28;20054;-82
2021/03/08 00:55:29;;;;;;;15.20;12.60;;;;;;;-2.45;82.12;100860.78;2064898;28;20022;-83
2021/03/08 00:56:29;;;;;;;17.17;13.33;;;;;;;-2.43;81.80;100860.00;2064959;28;20022;-83
2021/03/08 00:57:30;;;;;;;18.90;13.50;;;;;;;-2.49;82.03;100854.69;2064659;28;20061;-82
2021/03/08 00:58:31;;;;;;;18.08;13.15;;;;;;;-2.47;82.01;100862.41;2064034;28;20030;-81
2021/03/08 00:59:31;;;;;;;15.40;12.87;;;;;;;-2.44;81.85;100862.50;2064407;28;20038;-85
2021/03/08 01:00:31;;;;;;;16.60;12.83;;;;;;;-2.43;81.74;100864.25;2064411;28;20174;-83
2021/03/08 01:01:32;;;;;;;17.10;13.33;;;;;;;-2.47;82.12;100860.72;2064943;28;20117;-82
2021/03/08 01:02:32;;;;;;;19.27;12.87;;;;;;;-2.48;82.08;100858.09;2064940;28;20061;-83
2021/03/08 01:03:33;;;;;;;16.42;13.25;;;;;;;-2.44;81.98;100857.41;2072289;28;20025;-83
2021/03/08 01:04:33;;;;;;;15.83;12.63;;;;;;;-2.47;81.89;100863.28;2064335;28;20102;-84
2021/03/08 01:05:33;;;;;;;17.37;11.70;;;;;;;-2.44;81.83;100858.25;2064352;28;20022;-87
2021/03/08 01:06:34;;;;;;;15.77;12.83;;;;;;;-2.45;81.83;100860.78;2064911;28;20038;-82
2021/03/08 01:07:35;;;;;;;22.70;13.57;;;;;;;-2.44;81.81;100862.50;2064560;28;20067;-85
2021/03/08 01:08:35;;;;;;;15.35;13.13;;;;;;;-2.45;81.74;100860.78;2056413;28;20054;-83
2021/03/08 01:09:35;;;;;;;17.90;12.97;;;;;;;-2.50;81.82;100858.91;2064536;28;20512;-84
2021/03/08 01:10:36;;;;;;;16.17;12.90;;;;;;;-2.53;81.75;100863.94;2071974;28;20040;-85
2021/03/08 01:11:36;;;;;;;14.90;13.07;;;;;;;-2.51;82.12;100859.75;2072257;28;20034;-85
2021/03/08 01:12:36;;;;;;;18.93;13.67;;;;;;;-2.55;81.93;100860.47;2081123;28;20028;-88
2021/03/08 01:13:37;;;;;;;15.23;12.20;;;;;;;-2.53;82.01;100856.28;2081101;28;20104;-86
2021/03/08 01:14:37;;;;;;;18.67;13.97;;;;;;;-2.56;82.25;100858.72;2064937;28;20064;-86
2021/03/08 01:15:37;;;;;;;18.63;13.00;;;;;;;-2.55;82.07;100850.25;2068072;28;20476;-84
2021/03/08 01:16:38;;;;;;;15.90;12.90;;;;;;;-2.60;82.20;100845.81;2072988;28;20148;-83
2021/03/08 01:17:39;;;;;;;17.48;13.40;;;;;;;-2.60;82.07;100856.00;2080498;28;20186;-83
2021/03/08 01:18:39;;;;;;;17.88;13.48;;;;;;;-2.60;82.31;100846.69;2080576;28;20034;-81
2021/03/08 01:19:39;;;;;;;17.53;12.77;;;;;;;-2.61;82.40;100855.16;2073148;28;20034;-82
2021/03/08 01:20:40;;;;;;;16.87;13.43;;;;;;;-2.66;82.22;100859.22;2072881;28;20453;-82
2021/03/08 01:21:40;;;;;;;16.53;13.23;;;;;;;-2.71;82.28;100858.22;2072966;28;20034;-82
2021/03/08 01:22:40;;;;;;;18.00;12.77;;;;;;;-2.71;82.50;100858.22;2072904;28;20026;-83
2021/03/08 01:23:41;;;;;;;17.53;12.80;;;;;;;-2.70;82.49;100870.16;2070907;28;20037;-82
2021/03/08 01:24:41;;;;;;;16.40;12.63;;;;;;;-2.79;82.60;100860.50;2064969;28;20018;-87
2021/03/08 01:25:42;;;;;;;15.23;12.87;;;;;;;-2.78;82.62;100858.78;2064630;28;20499;-78
2021/03/08 01:26:42;;;;;;;17.08;12.35;;;;;;;-2.80;82.57;100858.75;2062862;28;20030;-75
2021/03/08 01:27:42;;;;;;;15.47;12.67;;;;;;;-2.79;82.67;100864.75;2065101;28;20041;-77
2021/03/08 01:28:43;;;;;;;19.67;13.70;;;;;;;-2.75;82.49;100858.91;2072343;28;20109;-80
2021/03/08 01:29:43;;;;;;;16.33;13.30;;;;;;;-2.82;82.92;100858.72;2071955;28;20079;-80
2021/03/08 01:30:45;;;;;;;17.37;13.67;;;;;;;-2.85;82.90;100861.13;2063065;28;20038;-76
2021/03/08 01:31:45;;;;;;;17.10;13.00;;;;;;;-2.89;83.12;100864.38;2064425;28;20022;-77
2021/03/08 01:32:46;;;;;;;17.73;13.50;;;;;;;-2.91;83.07;100858.38;2065066;28;20041;-76
2021/03/08 01:33:50;;;;;;;17.97;13.60;;;;;;;-2.89;82.98;100856.72;2064725;28;20392;-77
2021/03/08 01:34:51;;;;;;;17.85;13.13;;;;;;;-2.92;83.25;100853.22;2064986;28;20073;-77
2021/03/08 01:35:51;;;;;;;16.50;12.23;;;;;;;-2.94;83.07;100855.72;2065564;28;20026;-77
2021/03/08 01:36:51;;;;;;;18.00;13.37;;;;;;;-2.97;83.45;100850.50;2065301;28;20041;-77
2021/03/08 01:37:52;;;;;;;16.90;13.77;;;;;;;-2.93;83.40;100852.34;2066789;28;20550;-76
2021/03/08 01:38:52;;;;;;;17.40;13.87;;;;;;;-2.91;83.13;100850.72;2065366;28;20026;-78
2021/03/08 01:39:52;;;;;;;17.73;13.70;;;;;;;-2.89;83.14;100856.72;2065462;28;20030;-76
2021/03/08 01:40:53;;;;;;;16.93;13.53;;;;;;;-2.92;83.25;100848.09;2065589;28;20030;-78
2021/03/08 01:41:53;;;;;;;17.37;13.07;;;;;;;-2.91;83.34;100850.72;2065204;28;20158;-80
2021/03/08 01:42:54;;;;;;;18.00;13.67;;;;;;;-2.86;83.05;100845.78;2065862;28;20046;-77
2021/03/08 01:43:55;;;;;;;;;;;;;;;-2.92;83.32;100846.44;2066295;28;20023;-78
2021/03/08 01:44:55;;;;;;;15.27;12.77;;;;;;;-2.94;83.38;100842.97;2081350;28;19916;-79
2021/03/08 01:45:55;;;;;;;16.73;13.73;;;;;;;-2.91;83.22;100848.19;2080474;28;20053;-78
2021/03/08 01:46:56;;;;;;;17.80;13.50;;;;;;;-2.94;83.30;100837.00;2064961;28;20058;-79
2021/03/08 01:47:57;;;;;;;19.17;14.10;;;;;;;-2.96;83.52;100844.59;2064766;28;20026;-80
2021/03/08 01:48:57;;;;;;;17.58;13.38;;;;;;;-2.94;83.47;100850.63;2066502;28;20020;-79
2021/03/08 01:49:58;;;;;;;19.17;14.00;;;;;;;-2.99;83.44;100845.34;2066044;28;20408;-77
2021/03/08 01:50:58;;;;;;;17.33;13.43;;;;;;;-2.95;83.45;100841.22;2066732;28;20297;-81
2021/03/08 01:51:59;;;;;;;18.93;13.93;;;;;;;-3.00;83.41;100841.06;2073653;28;20739;-80
2021/03/08 01:53:00;;;;;;;19.23;13.45;;;;;;;-2.97;83.82;100841.19;2073897;28;20026;-85
2021/03/08 01:54:00;;;;;;;16.77;13.43;;;;;;;-2.98;83.48;100829.22;2073681;28;20083;-84
2021/03/08 01:55:01;;;;;;;19.87;13.53;;;;;;;-3.00;83.74;100840.19;2073967;28;20026;-85
2021/03/08 01:56:03;;;;;;;17.67;13.17;;;;;;;-3.02;83.78;100836.72;2066244;28;20073;-85
2021/03/08 01:57:06;;;;;;;18.17;13.55;;;;;;;-2.99;83.71;100836.84;2066399;28;20077;-85
2021/03/08 01:58:06;;;;;;;19.83;13.40;;;;;;;-2.93;83.33;100834.50;2066198;28;20021;-84
2021/03/08 01:59:08;;;;;;;18.73;13.95;;;;;;;-3.00;83.31;100835.97;2066323;28;20026;-84
2021/03/08 02:00:09;;;;;;;16.58;13.40;;;;;;;-3.02;83.59;100839.28;2073358;28;20116;-85
2021/03/08 02:01:09;;;;;;;17.00;13.68;;;;;;;-3.01;83.80;100833.38;2073526;28;20460;-84
2021/03/08 02:02:10;;;;;;;15.90;12.33;;;;;;;-2.99;83.88;100836.84;2073657;28;20022;-84
2021/03/08 02:03:10;;;;;;;20.95;13.50;;;;;;;-2.83;83.16;100831.44;2073812;28;20057;-84
2021/03/08 02:04:11;;;;;;;17.43;13.63;;;;;;;-2.93;83.02;100826.84;2066158;28;20022;-84
2021/03/08 02:05:17;;;;;;;18.07;13.53;;;;;;;-3.03;83.26;100835.00;2066279;28;20092;-84
2021/03/08 02:06:17;;;;;;;16.60;13.35;;;;;;;-3.01;83.63;100834.22;2066077;28;20026;-84
2021/03/08 02:07:18;;;;;;;16.17;13.63;;;;;;;-3.05;83.88;100826.41;2065589;28;20517;-84
2021/03/08 02:08:20;;;;;;;20.83;13.77;;;;;;;-3.08;84.02;100831.38;2065608;28;20058;-84
2021/03/08 02:09:21;;;;;;;21.92;14.32;;;;;;;-3.10;83.79;100833.03;2066259;28;20026;-86
2021/03/08 02:10:23;;;;;;;16.37;13.80;;;;;;;-3.03;83.85;100829.88;2073741;28;20037;-86
2021/03/08 02:11:23;;;;;;;17.38;13.10;;;;;;;-3.10;83.79;100838.13;2074142;28;20447;-78
2021/03/08 02:12:40;;;;;;;19.07;13.90;;;;;;;-3.08;83.84;100828.84;2066431;28;20030;-78
2021/03/08 02:14:16;;;;;;;18.00;13.15;;;;;;;-3.11;83.96;100831.31;2065648;28;20038;-79
2021/03/08 02:15:56;;;;;;;18.00;13.60;;;;;;;-3.23;84.34;100831.75;2080336;28;20025;-78
2021/03/08 02:17:07;;;;;;;18.58;12.98;;;;;;;-3.21;84.21;100828.44;2067139;28;20049;-77
2021/03/08 02:18:18;;;;;;;16.67;13.15;;;;;;;-3.20;84.11;100826.72;2064723;28;20037;-79
2021/03/08 02:19:21;;;;;;;18.58;13.48;;;;;;;-3.19;84.29;100823.38;2069131;28;20057;-84
2021/03/08 02:20:48;;;;;;;20.73;13.15;;;;;;;-3.14;84.12;100826.97;2078557;28;20029;-84
2021/03/08 02:22:06;;;;;;;18.00;13.18;;;;;;;-3.18;84.42;100830.22;2074548;28;20036;-82
2021/03/08 02:23:37;;;;;;;18.38;13.32;;;;;;;-3.21;84.39;100830.09;2066812;28;20037;-79
2021/03/08 02:24:40;;;;;;;19.35;13.60;;;;;;;-3.20;84.52;100824.19;2063709;28;21169;-78
2021/03/08 02:26:18;;;;;;;19.38;13.98;;;;;;;-3.28;84.51;100826.44;2065726;28;20018;-77
2021/03/08 02:27:46;;;;;;;20.88;13.55;;;;;;;-3.33;84.69;100826.28;2065280;28;20026;-77
2021/03/08 02:28:46;;;;;;;16.15;12.88;;;;;;;-3.35;84.99;100822.81;2065870;28;20541;-74
2021/03/08 02:29:50;;;;;;;18.97;14.27;;;;;;;-3.41;85.08;100819.19;2065247;28;20042;-73
2021/03/08 02:30:53;;;;;;;18.17;14.18;;;;;;;-3.39;85.43;100822.66;2065812;28;20116;-76
2021/03/08 02:31:56;;;;;;;17.83;13.75;;;;;;;-3.45;85.25;100820.75;2065457;28;20066;-76
2021/03/08 02:33:01;;;;;;;18.08;14.18;;;;;;;-3.45;85.60;100823.31;2065713;28;20029;-76
2021/03/08 02:34:07;;;;;;;17.67;13.38;;;;;;;-3.47;85.47;100827.47;2064959;28;20018;-79
2021/03/08 02:35:08;;;;;;;18.38;13.93;;;;;;;-3.38;85.19;100822.72;2064950;28;20500;-79
2021/03/08 02:36:09;;;;;;;17.58;13.48;;;;;;;-3.42;85.19;100825.09;2065685;28;20023;-80
2021/03/08 02:37:18;;;;;;;20.67;13.90;;;;;;;-3.48;85.39;100826.59;2065567;28;20030;-77
2021/03/08 02:38:22;;;;;;;18.02;14.15;;;;;;;-3.52;85.66;100818.75;2056986;28;20082;-78
2021/03/08 02:39:28;;;;;;;18.27;14.18;;;;;;;-3.58;85.66;100821.97;2057297;28;20038;-78
2021/03/08 02:40:36;;;;;;;20.90;13.75;;;;;;;-3.62;85.79;100823.53;2057724;28;20465;-78
2021/03/08 02:41:37;;;;;;;20.20;13.75;;;;;;;-3.64;85.85;100824.28;2057946;28;20062;-77
2021/03/08 02:42:41;;;;;;;18.33;14.23;;;;;;;-3.66;85.88;100820.81;2057988;28;20027;-78
2021/03/08 02:43:43;;;;;;;19.70;14.13;;;;;;;-3.54;85.69;100815.31;2064019;28;20050;-79
2021/03/08 02:44:47;;;;;;;18.60;13.80;;;;;;;-3.64;85.76;100821.72;2065234;28;20461;-78
2021/03/08 02:45:50;;;;;;;18.05;14.45;;;;;;;-3.64;85.87;100814.09;2064561;28;20014;-81
2021/03/08 02:46:53;;;;;;;17.83;14.35;;;;;;;-3.69;86.07;100810.50;2065701;28;20105;-80
2021/03/08 02:47:55;;;;;;;18.42;13.90;;;;;;;-3.68;85.95;100817.34;2065811;28;20038;-79
2021/03/08 02:49:01;;;;;;;19.98;14.20;;;;;;;-3.64;85.93;100814.09;2065927;28;20057;-80
2021/03/08 02:50:05;;;;;;;18.88;13.68;;;;;;;-3.66;85.81;100818.25;2065613;28;20433;-78
2021/03/08 02:51:06;;;;;;;19.95;14.38;;;;;;;-3.62;85.90;100822.66;2081262;28;20031;-79
2021/03/08 02:52:09;;;;;;;;;;;;;;;-3.64;85.76;100821.72;2079027;28;20029;-79
2021/03/08 02:53:13;;;;;;;19.88;14.43;;;;;;;-3.63;85.63;100821.81;2065732;28;19941;-78
2021/03/08 02:54:19;;;;;;;20.38;13.77;;;;;;;-3.69;85.55;100818.16;2073197;28;20048;-80
2021/03/08 02:55:22;;;;;;;16.17;13.98;;;;;;;-3.76;85.69;100820.44;2072813;28;20472;-79
2021/03/08 02:56:26;;;;;;;18.63;13.93;;;;;;;-3.74;85.72;100823.09;2065732;28;20512;-75
2021/03/08 02:57:38;;;;;;;17.30;13.50;;;;;;;-3.80;85.73;100826.25;2065638;28;20022;-78
2021/03/08 02:58:40;;;;;;;20.50;13.48;;;;;;;-3.76;85.79;100827.25;2065474;28;20026;-78
2021/03/08 02:59:45;;;;;;;19.40;15.48;;;;;;;-3.77;85.89;100823.81;2065574;28;20041;-78
2021/03/08 03:00:47;;;;;;;19.55;15.23;;;;;;;-3.83;85.90;100822.72;2065628;28;20057;-78
2021/03/08 03:01:49;;;;;;;17.77;14.30;;;;;;;-3.82;85.89;100827.88;2065520;28;20027;-80
2021/03/08 03:02:51;;;;;;;20.65;14.60;;;;;;;-3.84;85.84;100824.41;2064852;28;20046;-80
2021/03/08 03:03:57;;;;;;;18.92;14.70;;;;;;;-3.83;85.80;100826.13;2065062;28;20077;-80
2021/03/08 03:04:59;;;;;;;19.05;14.13;;;;;;;-3.82;86.30;100825.31;2065726;28;20018;-79
2021/03/08 03:06:01;;;;;;;19.83;15.15;;;;;;;-3.83;85.77;100823.59;2065678;28;20049;-79
2021/03/08 03:07:02;;;;;;;20.30;14.60;;;;;;;-3.76;85.90;100832.34;2073064;28;20029;-78
2021/03/08 03:08:03;;;;;;;19.55;14.40;;;;;;;-3.82;85.71;100832.13;2073113;28;20108;-79
2021/03/08 03:09:07;;;;;;;17.52;14.02;;;;;;;-3.82;85.75;100832.13;2064632;28;20053;-76
2021/03/08 03:10:08;;;;;;;19.80;15.30;;;;;;;-3.78;85.75;100837.38;2064720;28;20034;-84
2021/03/08 03:11:10;;;;;;;20.80;15.10;;;;;;;-3.78;85.89;100837.38;2065322;28;20045;-77
2021/03/08 03:12:12;;;;;;;20.95;14.75;;;;;;;-3.89;86.02;100837.75;2065632;28;20033;-79
2021/03/08 03:13:14;;;;;;;20.50;14.70;;;;;;;-3.89;86.33;100833.53;2064398;28;20201;-77
2021/03/08 03:14:15;;;;;;;;;;;;;;;-3.97;86.27;100834.94;2065494;28;20022;-79
2021/03/08 03:15:16;;;;;;;16.80;14.00;;;;;;;-3.82;86.08;100825.31;2064945;28;19964;-79
2021/03/08 03:16:17;;;;;;;18.43;14.20;;;;;;;-3.94;86.43;100832.47;2065372;28;20336;-79
2021/03/08 03:17:18;;;;;;;21.23;15.07;;;;;;;-3.97;86.55;100827.28;2065503;28;20281;-78
2021/03/08 03:18:20;;;;;;;18.50;14.93;;;;;;;-3.94;86.72;100825.72;2065808;28;20057;-78
2021/03/08 03:19:22;;;;;;;19.20;13.93;;;;;;;-4.02;86.70;100833.88;2065295;28;20041;-78
2021/03/08 03:20:23;;;;;;;20.23;16.20;;;;;;;-3.96;86.65;100834.09;2064664;28;20484;-75
2021/03/08 03:21:29;;;;;;;22.63;15.32;;;;;;;-4.03;86.90;100839.75;2065311;28;20026;-76
2021/03/08 03:22:30;;;;;;;23.92;15.73;;;;;;;-4.05;87.10;100837.16;2065502;28;20042;-76
2021/03/08 03:23:33;;;;;;;19.80;15.07;;;;;;;-4.06;86.98;100835.44;2064849;28;20036;-76
2021/03/08 03:24:34;;;;;;;18.75;14.90;;;;;;;-4.08;87.02;100840.47;2064850;28;20030;-76
2021/03/08 03:25:36;;;;;;;17.65;14.60;;;;;;;-4.10;86.85;100844.63;2065241;28;20096;-76
2021/03/08 03:26:39;;;;;;;19.25;14.68;;;;;;;-4.11;86.63;100837.78;2065323;28;20480;-76
2021/03/08 03:27:40;;;;;;;19.77;15.30;;;;;;;-4.14;86.79;100847.84;2065552;28;20093;-76
2021/03/08 03:28:41;;;;;;;22.00;16.08;;;;;;;-4.12;86.88;100848.78;2065490;28;20069;-76
2021/03/08 03:29:42;;;;;;;20.05;15.02;;;;;;;-4.11;86.73;100853.06;2064043;28;20102;-76
2021/03/08 03:30:43;;;;;;;20.05;15.68;;;;;;;-4.14;86.72;100854.63;2062178;28;20435;-76
2021/03/08 03:31:46;;;;;;;19.77;14.48;;;;;;;-4.03;86.86;100855.03;2064764;28;20116;-76
2021/03/08 03:32:47;;;;;;;20.35;15.10;;;;;;;-4.10;86.54;100854.81;2065469;28;20392;-76
2021/03/08 03:33:48;;;;;;;19.77;15.30;;;;;;;-4.10;86.67;100852.25;2065347;28;20030;-76
2021/03/08 03:34:50;;;;;;;20.65;15.07;;;;;;;-4.13;86.85;100846.19;2063769;28;20041;-76
2021/03/08 03:35:51;;;;;;;19.50;15.45;;;;;;;-4.18;86.93;100848.53;2064601;28;20069;-76
2021/03/08 03:36:52;;;;;;;20.30;15.18;;;;;;;-4.21;87.43;100850.97;2065283;28;20057;-76
2021/03/08 03:37:54;;;;;;;21.35;16.33;;;;;;;-4.22;87.26;100856.84;2065219;28;20678;-76
2021/03/08 03:38:56;;;;;;;26.45;16.52;;;;;;;-4.27;87.26;100856.66;2065500;28;20018;-76
2021/03/08 03:39:57;;;;;;;24.42;15.43;;;;;;;-4.31;87.21;100851.38;2064962;28;20057;-76
2021/03/08 03:40:57;;;;;;;20.43;15.10;;;;;;;-4.27;87.33;100855.81;2064789;28;20019;-76
2021/03/08 03:41:58;;;;;;;21.63;16.13;;;;;;;-4.22;87.37;100860.28;2064135;28;20022;-76
2021/03/08 03:42:59;;;;;;;20.80;15.63;;;;;;;-4.19;87.40;100858.66;2072793;28;20028;-76
2021/03/08 03:44:01;;;;;;;26.30;16.17;;;;;;;-4.17;87.49;100851.94;2064624;28;20049;-76
2021/03/08 03:45:08;;;;;;;23.75;15.48;;;;;;;-4.18;87.23;100855.28;2063499;28;20459;-76
2021/03/08 03:46:08;;;;;;;19.10;15.18;;;;;;;-4.13;87.29;100856.38;2063620;28;20033;-76
2021/03/08 03:47:11;;;;;;;21.70;15.83;;;;;;;-4.06;87.39;100855.78;2064628;28;20030;-76
2021/03/08 03:48:11;;;;;;;20.40;15.95;;;;;;;-4.09;87.40;100853.13;2064644;28;20109;-76
2021/03/08 03:49:13;;;;;;;22.20;16.30;;;;;;;-4.09;87.51;100861.66;2064074;28;20030;-77
2021/03/08 03:50:14;;;;;;;;;;;;;;;-4.12;87.42;100858.97;2065482;28;20057;-77
2021/03/08 03:51:14;;;;;;;19.58;15.13;;;;;;;-4.14;87.26;100858.03;2065827;28;20692;-77
2021/03/08 03:52:16;;;;;;;21.80;15.80;;;;;;;-4.15;87.35;100861.38;2065773;28;20069;-77
2021/03/08 03:53:16;;;;;;;23.83;16.05;;;;;;;-4.17;87.29;100857.03;2065430;28;20756;-77
2021/03/08 03:54:16;;;;;;;19.93;15.53;;;;;;;-4.21;87.14;100856.06;2064731;28;20030;-77
2021/03/08 03:55:19;;;;;;;19.75;14.63;;;;;;;-4.22;86.93;100859.41;2065166;28;20030;-77
2021/03/08 03:56:23;;;;;;;18.50;14.43;;;;;;;-4.28;87.01;100862.56;2072725;28;20381;-77
2021/03/08 03:57:25;;;;;;;21.42;15.10;;;;;;;-4.31;86.99;100859.03;2072222;28;20514;-77
2021/03/08 03:58:41;;;;;;;19.67;15.07;;;;;;;-4.35;86.95;100867.31;2065053;28;20069;-77
2021/03/08 03:59:46;;;;;;;21.17;14.77;;;;;;;-4.34;87.32;100858.88;2064478;28;20029;-77
2021/03/08 04:01:09;;;;;;;23.20;15.75;;;;;;;-4.34;87.55;100867.41;2065133;28;20621;-77
2021/03/08 04:02:17;;;;;;;20.13;15.13;;;;;;;-4.38;87.46;100868.97;2057629;28;20026;-77
2021/03/08 04:03:23;;;;;;;25.05;15.82;;;;;;;-4.43;87.62;100862.81;2060045;28;20510;-77
2021/03/08 04:04:35;;;;;;;21.25;15.23;;;;;;;-4.36;87.82;100868.16;2065094;28;20567;-77
2021/03/08 04:05:39;;;;;;;24.42;15.63;;;;;;;-4.26;87.99;100870.28;2065317;28;20040;-77
2021/03/08 04:06:50;;;;;;;20.50;16.00;;;;;;;-4.30;87.87;100868.41;2065525;28;20065;-77
2021/03/08 04:07:52;;;;;;;22.05;15.18;;;;;;;-4.29;87.57;100871.00;2065443;28;20084;-77
2021/03/08 04:08:57;;;;;;;24.05;16.05;;;;;;;-4.30;87.39;100870.94;2065185;28;20551;-77
2021/03/08 04:09:58;;;;;;;19.23;15.25;;;;;;;-4.35;87.32;100870.75;2064062;28;20022;-77
2021/03/08 04:11:03;;;;;;;21.27;16.50;;;;;;;-4.39;87.25;100876.50;2063815;28;20026;-77
2021/03/08 04:12:08;;;;;;;21.63;16.08;;;;;;;-4.37;87.46;100874.91;2072680;28;20533;-77
2021/03/08 04:13:12;;;;;;;21.50;15.57;;;;;;;-4.43;87.55;100882.31;2072214;28;20400;-77
2021/03/08 04:14:18;;;;;;;21.75;16.02;;;;;;;-4.44;87.63;100878.88;2065211;28;20045;-77
2021/03/08 04:15:21;;;;;;;23.30;16.48;;;;;;;-4.44;87.73;100878.00;2057215;28;20054;-77
2021/03/08 04:16:22;;;;;;;18.90;15.05;;;;;;;-4.47;87.77;100881.31;2064709;28;20400;-77
2021/03/08 04:17:25;;;;;;;21.05;15.98;;;;;;;-4.48;87.52;100881.22;2064459;28;20038;-77
2021/03/08 04:18:27;;;;;;;21.13;15.55;;;;;;;-4.50;87.51;100886.25;2057254;28;20031;-77
2021/03/08 04:19:30;;;;;;;22.85;15.63;;;;;;;-4.54;87.13;100882.72;2058938;28;20041;-77
2021/03/08 04:20:32;;;;;;;22.65;16.13;;;;;;;-4.57;87.28;100887.66;2065015;28;20432;-77
2021/03/08 04:21:38;;;;;;;;;;;;;;;-4.61;87.40;100877.28;2065310;28;20044;-77
2021/03/08 04:22:39;;;;;;;20.77;14.95;;;;;;;-4.58;87.67;100874.91;2065160;28;19937;-77
2021/03/08 04:23:41;;;;;;;22.00;15.48;;;;;;;-4.59;87.49;100874.00;2064509;28;20022;-76
2021/03/08 04:24:42;;;;;;;21.55;15.63;;;;;;;-4.64;88.10;100882.25;2064443;28;20022;-77
2021/03/08 04:25:46;;;;;;;20.73;15.80;;;;;;;-4.58;88.63;100878.28;2072600;28;20034;-77
2021/03/08 04:26:48;;;;;;;22.52;16.88;;;;;;;-4.61;88.52;100880.72;2065331;28;20031;-77
2021/03/08 04:27:50;;;;;;;24.85;16.77;;;;;;;-4.58;88.75;100880.84;2065211;28;20030;-77
2021/03/08 04:28:51;;;;;;;20.98;15.68;;;;;;;-4.60;88.53;100884.13;2065383;28;20022;-77
2021/03/08 04:29:53;;;;;;;20.63;16.03;;;;;;;-4.64;88.54;100879.69;2064465;28;20414;-77
2021/03/08 04:30:55;;;;;;;24.40;17.08;;;;;;;-4.64;88.93;100872.06;2064510;28;20053;-77
2021/03/08 04:31:56;;;;;;;19.33;16.13;;;;;;;-4.66;89.04;100886.44;2064955;28;20022;-77
2021/03/08 04:32:57;;;;;;;24.03;16.73;;;;;;;-4.67;88.95;100884.69;2065108;28;20022;-77
2021/03/08 04:33:59;;;;;;;22.38;17.08;;;;;;;-4.52;88.68;100882.78;2065060;28;20113;-76
2021/03/08 04:35:00;;;;;;;21.52;16.13;;;;;;;-4.65;89.12;100886.47;2064951;28;20073;-76
2021/03/08 04:36:01;;;;;;;22.10;16.25;;;;;;;-4.66;89.23;100888.97;2065242;28;20201;-77
2021/03/08 04:37:03;;;;;;;21.85;16.52;;;;;;;-4.72;89.47;100887.03;2064982;28;20056;-76
2021/03/08 04:38:04;;;;;;;21.70;17.27;;;;;;;-4.72;89.50;100890.44;2064981;28;20049;-77
2021/03/08 04:39:05;;;;;;;25.23;17.65;;;;;;;-4.75;89.42;100891.97;2065022;28;20516;-76
2021/03/08 04:40:08;;;;;;;22.23;16.55;;;;;;;-4.74;89.49;100897.13;2063735;28;20030;-77
2021/03/08 04:41:10;;;;;;;24.80;17.60;;;;;;;-4.72;89.58;100892.13;2064448;28;20027;-77
2021/03/08 04:42:12;;;;;;;23.20;16.67;;;;;;;-4.74;89.52;100894.56;2065070;28;20049;-77
2021/03/08 04:43:12;;;;;;;22.98;16.90;;;;;;;-4.72;89.73;100892.97;2064985;28;20509;-76
2021/03/08 04:44:13;;;;;;;26.73;17.07;;;;;;;-4.70;89.90;100891.38;2072465;28;20117;-77
2021/03/08 04:45:17;;;;;;;20.70;16.47;;;;;;;-4.76;89.77;100893.66;2072516;28;20468;-77
2021/03/08 04:46:17;;;;;;;26.63;17.67;;;;;;;-4.76;89.54;100895.31;2064816;28;20026;-77